Time;durP1;ratioP1;P1;durP2;ratioP2;P2;SDS_P1;SDS_P2;PMS_P1;PMS_P2;Temp;Humidity;BMP_temperature;BMP_pressure;BME280_temperature;BME280_humidity;BME280_pressure;Samples;Min_cycle;Max_cycle;Signal;HPM_P1;HPM_P2
2021/08/28 00:00:31;;;;;;;4.13;1.20;;;19.20;83.20;;;;;;5027374;28;20391;-68
2021/08/28 00:02:56;;;;;;;5.97;1.25;;;19.10;83.10;;;;;;5036632;28;20025;-69
2021/08/28 00:05:22;;;;;;;5.15;1.45;;;19.20;83.20;;;;;;5040141;28;20045;-67
2021/08/28 00:07:48;;;;;;;4.28;1.20;;;19.10;83.10;;;;;;5026590;28;20037;-70
2021/08/28 00:10:14;;;;;;;2.90;1.00;;;19.20;83.20;;;;;;5032640;28;20078;-67
2021/08/28 00:12:40;;;;;;;2.72;0.73;;;19.10;83.10;;;;;;5034097;28;20029;-71
2021/08/28 00:15:08;;;;;;;3.10;1.13;;;19.10;83.20;;;;;;5033093;28;20450;-68
2021/08/28 00:17:35;;;;;;;5.20;1.10;;;19.10;83.20;;;;;;5036160;28;20059;-67
2021/08/28 00:20:03;;;;;;;3.45;1.08;;;19.10;83.10;;;;;;5039151;28;20113;-70
2021/08/28 00:22:28;;;;;;;3.55;0.90;;;19.10;83.10;;;;;;5027721;28;20177;-68
2021/08/28 00:24:54;;;;;;;7.40;1.38;;;19.10;83.20;;;;;;5029269;28;20115;-67
2021/08/28 00:27:20;;;;;;;3.35;1.00;;;19.10;83.10;;;;;;5028667;28;20565;-69
2021/08/28 00:29:45;;;;;;;3.75;1.08;;;19.10;83.10;;;;;;5030498;28;20044;-66
2021/08/28 00:32:10;;;;;;;3.10;1.00;;;19.10;83.20;;;;;;5043238;28;20108;-67
2021/08/28 00:34:36;;;;;;;2.33;0.90;;;19.10;83.20;;;;;;5036134;28;20029;-67
2021/08/28 00:37:02;;;;;;;4.03;1.00;;;19.10;83.20;;;;;;5026021;28;20037;-67
2021/08/28 00:39:27;;;;;;;6.03;1.38;;;19.10;83.20;;;;;;5039954;28;20039;-68
2021/08/28 00:41:53;;;;;;;3.72;1.20;;;19.10;83.20;;;;;;5046481;28;20040;-67
2021/08/28 00:44:18;;;;;;;3.38;1.23;;;19.10;83.20;;;;;;5040859;28;20030;-67
2021/08/28 00:46:44;;;;;;;4.40;1.02;;;19.10;83.10;;;;;;5030702;28;20033;-67
2021/08/28 00:49:09;;;;;;;3.90;1.20;;;19.10;83.20;;;;;;5033934;28;20033;-68
2021/08/28 00:51:38;;;;;;;2.33;0.90;;;19.10;83.20;;;;;;5034571;28;20043;-67
2021/08/28 00:54:03;;;;;;;3.20;0.90;;;19.10;83.20;;;;;;5033986;28;20030;-69
2021/08/28 00:56:29;;;;;;;3.78;1.40;;;19.10;83.20;;;;;;5038881;28;20048;-68
2021/08/28 00:58:55;;;;;;;2.88;1.00;;;19.10;83.10;;;;;;5042876;28;20037;-67
2021/08/28 01:01:25;;;;;;;4.05;0.90;;;19.10;83.20;;;;;;5034216;28;20388;-68
2021/08/28 01:03:57;;;;;;;2.28;0.95;;;19.10;83.10;;;;;;5044825;28;20036;-68
2021/08/28 01:06:35;;;;;;;2.03;0.85;;;19.10;83.10;;;;;;5033119;28;20029;-68
2021/08/28 01:09:25;;;;;;;4.00;1.00;;;19.10;83.10;;;;;;5027382;28;20036;-67
2021/08/28 01:12:02;;;;;;;3.05;0.80;;;19.10;83.10;;;;;;5042233;28;20036;-68
2021/08/28 01:14:29;;;;;;;3.60;1.20;;;19.10;83.10;;;;;;5040322;28;20526;-69
2021/08/28 01:16:59;;;;;;;3.80;1.10;;;19.10;83.10;;;;;;5038632;28;20041;-68
2021/08/28 01:19:44;;;;;;;1.88;0.90;;;19.10;83.10;;;;;;5031781;28;20494;-69
2021/08/28 01:22:14;;;;;;;3.85;1.10;;;19.10;83.00;;;;;;5045186;28;20037;-68
2021/08/28 01:24:42;;;;;;;4.07;1.20;;;19.10;83.00;;;;;;5029960;28;20029;-68
2021/08/28 01:27:31;;;;;;;4.15;1.20;;;19.10;83.60;;;;;;5039170;28;20105;-68
2021/08/28 01:29:58;;;;;;;3.47;1.00;;;19.10;83.00;;;;;;5027085;28;20021;-68
2021/08/28 01:32:25;;;;;;;2.65;1.02;;;19.10;83.00;;;;;;5032790;28;20063;-68
2021/08/28 01:34:53;;;;;;;1.67;0.82;;;19.10;83.00;;;;;;5039984;28;20025;-68
2021/08/28 01:37:19;;;;;;;3.92;1.15;;;19.10;83.00;;;;;;5046176;28;20128;-68
2021/08/28 01:39:46;;;;;;;4.32;0.93;;;19.00;83.00;;;;;;5044394;28;20554;-67
2021/08/28 01:42:14;;;;;;;4.47;1.35;;;19.10;83.00;;;;;;5031542;28;20498;-68
2021/08/28 01:44:45;;;;;;;3.88;1.10;;;19.10;82.90;;;;;;5033181;28;20040;-68
2021/08/28 01:47:13;;;;;;;2.42;1.15;;;19.00;82.90;;;;;;5030591;28;20059;-68
2021/08/28 01:49:40;;;;;;;2.67;1.10;;;19.00;82.90;;;;;;5043865;28;20025;-67
2021/08/28 01:52:06;;;;;;;3.30;0.98;;;19.00;82.90;;;;;;5040891;28;20033;-70
2021/08/28 01:54:32;;;;;;;2.05;1.08;;;19.00;82.90;;;;;;5026676;28;20037;-69
2021/08/28 01:56:58;;;;;;;3.90;1.38;;;19.00;82.90;;;;;;5042413;28;20029;-70
2021/08/28 01:59:23;;;;;;;2.20;0.93;;;19.00;82.80;;;;;;5038351;28;20029;-67
2021/08/28 02:01:49;;;;;;;3.28;1.35;;;19.00;82.80;;;;;;5024719;28;20041;-68
2021/08/28 02:04:14;;;;;;;4.15;1.25;;;19.00;82.80;;;;;;5026838;28;20040;-68
2021/08/28 02:07:00;;;;;;;3.67;1.13;;;19.00;82.80;;;;;;5038728;28;20651;-69
2021/08/28 02:09:38;;;;;;;3.83;1.10;;;19.00;82.80;;;;;;5034038;28;20491;-68
2021/08/28 02:12:11;;;;;;;2.47;1.27;;;19.00;82.80;;;;;;5031631;28;20047;-69
2021/08/28 02:15:09;;;;;;;3.50;1.48;;;19.00;82.80;;;;;;5036454;28;20037;-67
2021/08/28 02:18:07;;;;;;;4.95;1.60;;;19.00;82.80;;;;;;5024613;28;20040;-69
2021/08/28 02:20:39;;;;;;;4.47;1.35;;;19.00;82.80;;;;;;5017889;28;20525;-69
2021/08/28 02:23:09;;;;;;;3.85;1.20;;;19.00;82.80;;;;;;5035499;28;20034;-71
2021/08/28 02:25:46;;;;;;;3.42;1.10;;;19.00;82.80;;;;;;5029821;28;20049;-68
2021/08/28 02:28:16;;;;;;;3.53;1.30;;;19.00;82.80;;;;;;5026949;28;20036;-69
2021/08/28 02:30:44;;;;;;;3.25;1.33;;;19.00;82.80;;;;;;5029668;28;20029;-69
2021/08/28 02:33:11;;;;;;;3.75;1.40;;;19.00;82.90;;;;;;5026788;28;20595;-67
2021/08/28 02:35:37;;;;;;;3.50;1.40;;;19.00;82.90;;;;;;5034858;28;20128;-67
2021/08/28 02:38:04;;;;;;;4.07;1.40;;;19.00;82.80;;;;;;5036238;28;20033;-68
2021/08/28 02:40:32;;;;;;;3.90;1.33;;;19.00;82.90;;;;;;5025114;28;20032;-70
2021/08/28 02:42:59;;;;;;;2.85;1.20;;;19.00;82.90;;;;;;5034352;28;20025;-67
2021/08/28 02:45:28;;;;;;;2.65;1.13;;;19.00;83.00;;;;;;5036671;28;20024;-69
2021/08/28 02:47:54;;;;;;;3.92;1.10;;;19.00;82.90;;;;;;5043556;28;20075;-68
2021/08/28 02:50:23;;;;;;;3.63;1.25;;;19.00;82.90;;;;;;5044066;28;20036;-67
2021/08/28 02:52:50;;;;;;;2.33;1.10;;;19.00;82.90;;;;;;5043635;28;20078;-70
2021/08/28 02:55:15;;;;;;;3.40;1.25;;;19.00;82.90;;;;;;5042924;28;20540;-68
2021/08/28 02:57:47;;;;;;;4.00;1.25;;;19.00;82.90;;;;;;5033018;28;20041;-69
2021/08/28 03:00:13;;;;;;;3.90;1.30;;;19.00;82.90;;;;;;5041533;28;20021;-67
2021/08/28 03:02:40;;;;;;;3.58;1.25;;;19.00;82.90;;;;;;5042520;28;20041;-69
2021/08/28 03:05:08;;;;;;;3.15;1.40;;;19.00;83.00;;;;;;5038936;28;20037;-68
2021/08/28 03:07:34;;;;;;;3.40;1.00;;;19.00;82.90;;;;;;5033395;28;20068;-70
2021/08/28 03:10:02;;;;;;;3.05;1.30;;;19.00;83.40;;;;;;5024790;28;20029;-67
2021/08/28 03:12:27;;;;;;;2.53;1.20;;;19.00;82.90;;;;;;5030203;28;21044;-67
2021/08/28 03:14:53;;;;;;;3.50;1.40;;;19.00;82.90;;;;;;5035743;28;20025;-68
2021/08/28 03:17:20;;;;;;;2.95;1.38;;;19.00;82.90;;;;;;5023562;28;20455;-67
2021/08/28 03:19:47;;;;;;;3.70;1.10;;;19.00;82.90;;;;;;5033220;28;20048;-68
2021/08/28 03:22:17;;;;;;;3.22;1.38;;;19.00;83.40;;;;;;5036817;28;20073;-68
2021/08/28 03:24:44;;;;;;;3.17;1.40;;;19.00;82.90;;;;;;5027939;28;20402;-68
2021/08/28 03:27:10;;;;;;;3.10;1.40;;;19.00;82.80;;;;;;5039340;28;20036;-68
2021/08/28 03:29:37;;;;;;;3.17;1.20;;;19.00;82.90;;;;;;5033242;28;20034;-68
2021/08/28 03:32:04;;;;;;;2.45;1.55;;;19.00;82.90;;;;;;5044574;28;20029;-67
2021/08/28 03:34:31;;;;;;;4.03;1.30;;;19.00;82.90;;;;;;5043975;28;20460;-68
2021/08/28 03:36:57;;;;;;;8.80;1.80;;;19.00;82.90;;;;;;5032155;28;20033;-69
2021/08/28 03:39:23;;;;;;;2.83;1.27;;;19.00;82.90;;;;;;5028295;28;20435;-69
2021/08/28 03:41:49;;;;;;;3.33;1.60;;;19.00;82.90;;;;;;5038697;28;20035;-68
2021/08/28 03:44:16;;;;;;;2.45;1.40;;;19.00;82.90;;;;;;5039740;28;20029;-66
2021/08/28 03:46:43;;;;;;;3.13;1.30;;;19.00;82.80;;;;;;5028428;28;20785;-70
2021/08/28 03:49:08;;;;;;;5.20;1.42;;;19.00;82.80;;;;;;5032305;28;20509;-68
2021/08/28 03:51:34;;;;;;;2.95;1.40;;;19.00;82.90;;;;;;5027983;28;20060;-70
2021/08/28 03:54:00;;;;;;;3.35;1.40;;;19.00;83.00;;;;;;5038070;28;20115;-68
2021/08/28 03:56:25;;;;;;;3.10;1.42;;;19.00;83.00;;;;;;5036349;28;20052;-69
2021/08/28 03:58:51;;;;;;;3.67;1.55;;;19.00;83.00;;;;;;5047349;28;20041;-68
2021/08/28 04:01:17;;;;;;;4.30;1.58;;;19.00;82.90;;;;;;5028809;28;20029;-67
2021/08/28 04:03:42;;;;;;;2.80;1.52;;;19.00;83.00;;;;;;5034268;28;20052;-68
2021/08/28 04:06:08;;;;;;;4.25;1.50;;;19.00;82.90;;;;;;5038445;28;20055;-69
2021/08/28 04:08:33;;;;;;;2.50;1.30;;;19.00;82.90;;;;;;5030059;28;20552;-67
2021/08/28 04:10:59;;;;;;;4.40;1.42;;;19.00;83.00;;;;;;5028125;28;20037;-69
2021/08/28 04:13:24;;;;;;;4.72;1.27;;;19.00;83.00;;;;;;5034735;28;20128;-67
2021/08/28 04:15:51;;;;;;;5.50;1.50;;;19.00;83.00;;;;;;5040644;28;20039;-70
2021/08/28 04:18:16;;;;;;;3.50;1.42;;;19.00;83.00;;;;;;5038229;28;20044;-68
2021/08/28 04:20:42;;;;;;;4.60;1.63;;;19.00;83.10;;;;;;5025925;28;20290;-68
2021/08/28 04:23:08;;;;;;;3.67;1.40;;;19.00;83.20;;;;;;5028293;28;20104;-68
2021/08/28 04:25:33;;;;;;;3.63;1.50;;;19.00;83.30;;;;;;5040810;28;20060;-68
2021/08/28 04:27:59;;;;;;;3.58;1.33;;;19.00;83.30;;;;;;5039757;28;20477;-68
2021/08/28 04:30:25;;;;;;;4.20;1.40;;;19.00;83.40;;;;;;5037240;28;20033;-67
2021/08/28 04:32:51;;;;;;;2.97;1.15;;;19.00;83.50;;;;;;5027404;28;20036;-68
2021/08/28 04:35:16;;;;;;;2.80;1.40;;;19.00;83.60;;;;;;5026025;28;20561;-71
2021/08/28 04:37:42;;;;;;;2.20;1.23;;;19.00;83.60;;;;;;5025817;28;20029;-69
2021/08/28 04:40:08;;;;;;;3.17;1.38;;;19.00;83.70;;;;;;5026967;28;20026;-68
2021/08/28 04:42:33;;;;;;;3.00;1.50;;;19.00;83.80;;;;;;5027040;28;20025;-68
2021/08/28 04:44:59;;;;;;;2.97;1.35;;;19.00;83.80;;;;;;5025459;28;20517;-71
2021/08/28 04:47:24;;;;;;;2.92;1.40;;;19.00;83.80;;;;;;5027179;28;20818;-68
2021/08/28 04:49:50;;;;;;;2.10;1.20;;;19.00;83.90;;;;;;5025616;28;20116;-68
2021/08/28 04:52:15;;;;;;;3.90;1.40;;;19.00;83.90;;;;;;5025571;28;20398;-69
2021/08/28 04:54:41;;;;;;;2.55;1.30;;;19.00;84.00;;;;;;5026862;28;20055;-68
2021/08/28 04:57:07;;;;;;;3.03;1.48;;;19.00;84.00;;;;;;5026889;28;20555;-70
2021/08/28 04:59:33;;;;;;;3.60;1.60;;;19.00;84.00;;;;;;5041354;28;20498;-70
2021/08/28 05:01:59;;;;;;;2.10;1.20;;;19.00;84.00;;;;;;5045008;28;20035;-68
2021/08/28 05:04:25;;;;;;;3.28;1.30;;;19.00;84.00;;;;;;5044999;28;20029;-69
2021/08/28 05:06:51;;;;;;;3.38;1.55;;;19.00;84.10;;;;;;5041994;28;20495;-69
2021/08/28 05:09:17;;;;;;;4.05;1.60;;;19.00;84.10;;;;;;5035662;28;20115;-68
2021/08/28 05:11:43;;;;;;;2.65;1.50;;;19.00;84.10;;;;;;5037648;28;20033;-67
2021/08/28 05:14:08;;;;;;;3.08;1.40;;;18.90;84.10;;;;;;5043569;28;20444;-69
2021/08/28 05:16:34;;;;;;;2.28;1.20;;;19.00;84.20;;;;;;5043421;28;20051;-69
2021/08/28 05:18:59;;;;;;;2.50;1.25;;;19.00;84.20;;;;;;5038859;28;20559;-69
2021/08/28 05:21:25;;;;;;;2.97;1.50;;;19.00;84.20;;;;;;5034241;28;20025;-68
2021/08/28 05:23:50;;;;;;;3.38;1.33;;;19.00;84.20;;;;;;5037852;28;20128;-68
2021/08/28 05:26:16;;;;;;;4.40;1.30;;;19.00;84.30;;;;;;5030164;28;20024;-70
2021/08/28 05:28:42;;;;;;;2.80;1.27;;;19.00;84.20;;;;;;5028344;28;20029;-67
2021/08/28 05:31:07;;;;;;;3.65;1.40;;;19.00;84.30;;;;;;5041092;28;20099;-68
2021/08/28 05:33:33;;;;;;;3.42;1.48;;;19.00;84.30;;;;;;5044548;28;20479;-68
2021/08/28 05:35:58;;;;;;;3.22;1.30;;;19.00;84.30;;;;;;5038284;28;20057;-69
2021/08/28 05:38:24;;;;;;;3.10;1.20;;;19.00;84.30;;;;;;5035669;28;20091;-67
2021/08/28 05:40:50;;;;;;;3.05;1.27;;;19.00;84.30;;;;;;5035809;28;20065;-69
2021/08/28 05:43:15;;;;;;;4.40;1.20;;;19.00;84.30;;;;;;5035455;28;20082;-68
2021/08/28 05:45:41;;;;;;;2.20;1.10;;;19.00;84.40;;;;;;5032606;28;20056;-68
2021/08/28 05:48:06;;;;;;;4.47;1.80;;;19.00;84.30;;;;;;5033006;28;20122;-67
2021/08/28 05:50:32;;;;;;;3.70;1.45;;;19.00;84.50;;;;;;5025163;28;20032;-68
2021/08/28 05:52:57;;;;;;;3.58;1.17;;;19.00;84.70;;;;;;5028400;28;20494;-67
2021/08/28 05:55:23;;;;;;;7.15;1.45;;;19.00;84.80;;;;;;5027042;28;20026;-68
2021/08/28 05:57:48;;;;;;;4.32;1.60;;;19.00;84.80;;;;;;5038371;28;20101;-68
2021/08/28 06:00:14;;;;;;;3.15;1.25;;;19.00;84.80;;;;;;5043929;28;20407;-69
2021/08/28 06:02:39;;;;;;;2.40;1.20;;;19.00;84.80;;;;;;5032870;28;20129;-68
2021/08/28 06:05:10;;;;;;;3.25;1.15;;;19.00;84.80;;;;;;5025305;28;20056;-68
2021/08/28 06:07:36;;;;;;;1.92;1.15;;;19.00;84.80;;;;;;5026391;28;20021;-68
2021/08/28 06:10:03;;;;;;;3.35;1.42;;;19.00;84.80;;;;;;5039118;28;20028;-68
2021/08/28 06:12:29;;;;;;;2.80;1.30;;;19.00;84.80;;;;;;5040133;28;20037;-68
2021/08/28 06:14:54;;;;;;;2.90;1.40;;;19.00;84.70;;;;;;5031256;28;20398;-68
2021/08/28 06:17:20;;;;;;;3.83;1.50;;;19.00;84.80;;;;;;5034378;28;20029;-68
2021/08/28 06:19:46;;;;;;;4.13;1.25;;;19.00;84.70;;;;;;5041334;28;20045;-68
2021/08/28 06:22:11;;;;;;;2.67;1.30;;;19.00;84.70;;;;;;5039752;28;20033;-67
2021/08/28 06:24:37;;;;;;;2.97;1.25;;;19.00;84.70;;;;;;5024957;28;20087;-68
2021/08/28 06:27:03;;;;;;;2.05;1.20;;;19.00;84.70;;;;;;5034580;28;20569;-68
2021/08/28 06:29:29;;;;;;;2.42;1.05;;;19.00;84.70;;;;;;5042254;28;20025;-68
2021/08/28 06:31:54;;;;;;;3.58;1.30;;;19.00;84.70;;;;;;5038595;28;20431;-68
2021/08/28 06:34:20;;;;;;;2.55;1.17;;;19.00;84.70;;;;;;5035437;28;20064;-68
2021/08/28 06:36:45;;;;;;;3.00;1.52;;;19.00;84.70;;;;;;5040923;28;20502;-68
2021/08/28 06:39:11;;;;;;;34.53;4.10;;;19.10;84.60;;;;;;5034464;28;20033;-68
2021/08/28 06:41:37;;;;;;;14.20;2.65;;;19.00;84.60;;;;;;5058276;28;20078;-67
2021/08/28 06:44:02;;;;;;;15.38;1.75;;;19.10;84.80;;;;;;5044626;28;20120;-71
2021/08/28 06:46:28;;;;;;;4.78;1.50;;;19.10;84.90;;;;;;5026770;28;20022;-68
2021/08/28 06:48:53;;;;;;;4.07;1.38;;;19.10;84.80;;;;;;5037998;28;20021;-67
2021/08/28 06:51:19;;;;;;;4.80;1.73;;;19.10;85.30;;;;;;5032993;28;20119;-70
2021/08/28 06:53:44;;;;;;;4.05;1.45;;;19.10;84.80;;;;;;5034351;28;20029;-70
2021/08/28 06:56:10;;;;;;;5.07;1.73;;;19.10;84.80;;;;;;5026324;28;20492;-69
2021/08/28 06:58:35;;;;;;;3.75;1.40;;;19.10;84.70;;;;;;5043599;28;20029;-69
2021/08/28 07:01:01;;;;;;;2.88;1.25;;;19.10;84.70;;;;;;5032884;28;20040;-69
2021/08/28 07:03:28;;;;;;;3.22;1.30;;;19.10;84.50;;;;;;5043993;28;20025;-68
2021/08/28 07:05:54;;;;;;;4.38;1.60;;;19.10;84.50;;;;;;5041443;28;20025;-67
2021/08/28 07:08:19;;;;;;;5.28;1.60;;;19.10;84.40;;;;;;5032428;28;20429;-68
2021/08/28 07:10:46;;;;;;;4.82;1.35;;;19.10;84.50;;;;;;5028299;28;20233;-67
2021/08/28 07:13:12;;;;;;;2.47;1.20;;;19.10;84.40;;;;;;5026984;28;20116;-67
2021/08/28 07:15:38;;;;;;;2.88;1.10;;;19.10;84.40;;;;;;5027150;28;20132;-67
2021/08/28 07:18:03;;;;;;;3.05;1.20;;;19.10;84.40;;;;;;5026886;28;20022;-66
2021/08/28 07:20:29;;;;;;;3.15;1.40;;;19.10;84.40;;;;;;5029750;28;20040;-67
2021/08/28 07:22:54;;;;;;;2.90;1.20;;;19.10;84.20;;;;;;5037618;28;20036;-65
2021/08/28 07:25:20;;;;;;;3.35;1.10;;;19.10;84.80;;;;;;5041218;28;20199;-65
2021/08/28 07:27:46;;;;;;;3.80;1.67;;;19.10;84.30;;;;;;5035745;28;20033;-65
2021/08/28 07:30:11;;;;;;;6.85;1.30;;;19.10;84.20;;;;;;5048553;28;20028;-66
2021/08/28 07:32:37;;;;;;;3.17;1.40;;;19.10;84.10;;;;;;5036470;28;20035;-65
2021/08/28 07:35:04;;;;;;;2.55;1.20;;;19.10;84.10;;;;;;5027843;28;20056;-65
2021/08/28 07:37:29;;;;;;;4.80;1.70;;;19.10;84.10;;;;;;5026847;28;20061;-65
2021/08/28 07:39:55;;;;;;;5.72;1.60;;;19.10;84.60;;;;;;5043262;28;20053;-66
2021/08/28 07:42:20;;;;;;;5.40;1.40;;;19.20;84.30;;;;;;5046062;28;20436;-66
2021/08/28 07:44:46;;;;;;;4.88;1.42;;;19.20;84.40;;;;;;5036630;28;20035;-65
2021/08/28 07:47:11;;;;;;;3.20;1.40;;;19.10;85.00;;;;;;5048377;28;20100;-64
2021/08/28 07:49:37;;;;;;;2.67;1.20;;;19.10;84.50;;;;;;5046686;28;20075;-66
2021/08/28 07:52:03;;;;;;;3.72;1.25;;;19.10;84.40;;;;;;5047976;28;20064;-66
2021/08/28 07:54:28;;;;;;;3.13;1.30;;;19.10;84.40;;;;;;5047769;28;20074;-65
2021/08/28 07:56:54;;;;;;;2.67;1.35;;;19.10;84.30;;;;;;5031535;28;20021;-65
2021/08/28 07:59:22;;;;;;;3.15;1.10;;;19.10;84.30;;;;;;5028195;28;20033;-67
2021/08/28 08:01:48;;;;;;;3.17;1.42;;;19.10;84.30;;;;;;5027862;28;20100;-69
2021/08/28 08:04:13;;;;;;;3.75;1.10;;;19.20;84.30;;;;;;5026577;28;20087;-65
2021/08/28 08:06:42;;;;;;;2.15;1.13;;;19.20;84.20;;;;;;5028350;28;20025;-71
2021/08/28 08:09:08;;;;;;;3.70;1.52;;;19.10;84.00;;;;;;5029099;28;20384;-67
2021/08/28 08:11:36;;;;;;;3.15;1.08;;;19.20;83.90;;;;;;5034026;28;20029;-67
2021/08/28 08:14:02;;;;;;;4.70;3.15;;;19.20;83.90;;;;;;5029718;28;20028;-68
2021/08/28 08:16:28;;;;;;;7.15;1.52;;;19.20;83.70;;;;;;5026451;28;20033;-67
2021/08/28 08:18:54;;;;;;;6.03;1.60;;;19.20;83.80;;;;;;5026176;28;20025;-67
2021/08/28 08:21:21;;;;;;;6.22;1.50;;;19.20;83.60;;;;;;5031256;28;20390;-67
2021/08/28 08:23:47;;;;;;;6.07;1.75;;;19.30;83.70;;;;;;5044241;28;20074;-69
2021/08/28 08:26:13;;;;;;;5.45;1.40;;;19.30;83.70;;;;;;5035008;28;20519;-67
2021/08/28 08:28:38;;;;;;;5.65;1.45;;;19.30;83.30;;;;;;5028891;28;20062;-68
2021/08/28 08:31:04;;;;;;;4.22;1.40;;;19.30;83.50;;;;;;5032962;28;20048;-68
2021/08/28 08:33:30;;;;;;;5.13;1.23;;;19.30;83.80;;;;;;5032962;28;20029;-66
2021/08/28 08:35:55;;;;;;;4.88;1.40;;;19.30;84.50;;;;;;5033612;28;20100;-67
2021/08/28 08:38:21;;;;;;;3.85;1.40;;;19.30;84.60;;;;;;5030194;28;20052;-65
2021/08/28 08:40:50;;;;;;;5.60;1.40;;;19.40;85.90;;;;;;5041970;28;20098;-66
2021/08/28 08:43:16;;;;;;;4.72;1.52;;;19.40;85.60;;;;;;5036777;28;20597;-66
2021/08/28 08:45:46;;;;;;;3.17;1.30;;;19.40;85.30;;;;;;5030228;28;20565;-67
2021/08/28 08:48:13;;;;;;;5.25;1.50;;;19.50;84.50;;;;;;5034741;28;20446;-68
2021/08/28 08:50:40;;;;;;;3.78;1.55;;;19.50;83.90;;;;;;5036634;28;20033;-66
2021/08/28 08:53:07;;;;;;;7.75;1.80;;;19.50;84.60;;;;;;5029638;28;20026;-66
2021/08/28 08:55:33;;;;;;;3.58;1.30;;;19.50;83.80;;;;;;5030033;28;20025;-67
2021/08/28 08:57:59;;;;;;;5.00;1.30;;;19.50;83.80;;;;;;5033181;28;20032;-67
2021/08/28 09:00:26;;;;;;;6.88;1.58;;;19.50;83.30;;;;;;5033594;28;20021;-66
2021/08/28 09:02:51;;;;;;;4.82;1.60;;;19.50;83.50;;;;;;5033213;28;20071;-67
2021/08/28 09:05:17;;;;;;;9.48;1.67;;;19.50;83.10;;;;;;5025214;28;20069;-67
2021/08/28 09:07:43;;;;;;;3.75;1.67;;;19.60;83.00;;;;;;5026792;28;20112;-67
2021/08/28 09:10:09;;;;;;;6.85;1.35;;;19.60;82.70;;;;;;5024607;28;20030;-68
2021/08/28 09:12:37;;;;;;;11.52;1.83;;;19.70;81.90;;;;;;5025158;28;20041;-67
2021/08/28 09:15:04;;;;;;;6.57;1.60;;;19.70;81.80;;;;;;5026804;28;20022;-68
2021/08/28 09:17:30;;;;;;;8.32;2.55;;;19.80;81.70;;;;;;5026308;28;20056;-67
2021/08/28 09:19:56;;;;;;;8.02;1.90;;;19.90;80.90;;;;;;5024789;28;20036;-68
2021/08/28 09:22:33;;;;;;;6.07;1.50;;;19.80;80.60;;;;;;5026326;28;20033;-68
2021/08/28 09:25:04;;;;;;;5.88;1.50;;;19.90;80.50;;;;;;5024746;28;20029;-67
2021/08/28 09:27:38;;;;;;;8.30;1.70;;;19.90;80.50;;;;;;5025046;28;20611;-67
2021/08/28 09:30:25;;;;;;;8.85;1.75;;;19.90;80.60;;;;;;5026010;28;20434;-67
2021/08/28 09:32:57;;;;;;;7.78;2.10;;;19.90;80.80;;;;;;5024991;28;20029;-68
2021/08/28 09:35:29;;;;;;;7.50;1.30;;;19.90;80.90;;;;;;5026450;28;20465;-67
2021/08/28 09:38:09;;;;;;;10.63;1.90;;;19.90;81.00;;;;;;5024962;28;20029;-68
2021/08/28 09:40:44;;;;;;;13.25;2.15;;;19.90;80.70;;;;;;5025699;28;20029;-68
2021/08/28 09:43:20;;;;;;;10.85;1.77;;;19.90;80.40;;;;;;5024816;28;20040;-68
2021/08/28 09:45:48;;;;;;;9.60;2.00;;;19.90;80.60;;;;;;5026164;28;20021;-68
2021/08/28 09:48:16;;;;;;;13.00;2.00;;;19.90;80.60;;;;;;5026004;28;20028;-67
2021/08/28 09:50:48;;;;;;;12.95;2.35;;;19.90;80.50;;;;;;5025299;28;20112;-68
2021/08/28 09:53:21;;;;;;;15.82;2.22;;;19.90;80.70;;;;;;5024680;28;20068;-66
2021/08/28 09:55:57;;;;;;;12.63;2.40;;;20.00;81.00;;;;;;5029474;28;20561;-66
2021/08/28 09:58:25;;;;;;;22.05;2.63;;;20.00;80.80;;;;;;5040930;28;20546;-67
2021/08/28 10:00:50;;;;;;;12.55;2.40;;;20.10;81.20;;;;;;5042919;28;20474;-71
2021/08/28 10:03:17;;;;;;;18.00;3.15;;;20.10;80.40;;;;;;5028897;28;20021;-69
2021/08/28 10:05:45;;;;;;;16.17;2.72;;;20.20;80.70;;;;;;5032458;28;20631;-69
2021/08/28 10:08:11;;;;;;;18.60;3.15;;;20.20;80.00;;;;;;5045486;28;20032;-67
2021/08/28 10:10:39;;;;;;;21.90;2.88;;;20.10;79.70;;;;;;5037034;28;20375;-67
2021/08/28 10:13:06;;;;;;;20.38;3.15;;;20.20;79.80;;;;;;5056291;28;20013;-68
2021/08/28 10:15:35;;;;;;;21.73;2.97;;;20.10;79.60;;;;;;5045568;28;20036;-67
2021/08/28 10:18:05;;;;;;;13.02;2.30;;;20.10;79.30;;;;;;5047106;28;20033;-68
2021/08/28 10:20:30;;;;;;;13.82;2.45;;;20.10;79.30;;;;;;5031727;28;20037;-67
2021/08/28 10:23:01;;;;;;;11.32;2.85;;;20.10;79.40;;;;;;5029122;28;20055;-67
2021/08/28 10:25:29;;;;;;;7.43;2.73;;;20.10;79.70;;;;;;5031251;28;20038;-67
2021/08/28 10:27:56;;;;;;;7.15;2.40;;;20.00;80.30;;;;;;5039957;28;20595;-70
2021/08/28 10:30:24;;;;;;;7.30;2.40;;;20.00;80.50;;;;;;5035789;28;20076;-67
2021/08/28 10:32:51;;;;;;;7.07;2.33;;;20.00;80.50;;;;;;5025254;28;20068;-67
2021/08/28 10:35:19;;;;;;;8.00;2.60;;;20.00;80.40;;;;;;5037766;28;20032;-67
2021/08/28 10:37:45;;;;;;;5.03;2.35;;;20.00;80.40;;;;;;5028753;28;20112;-68
2021/08/28 10:40:23;;;;;;;8.63;2.55;;;19.90;80.90;;;;;;5023829;28;20083;-68
2021/08/28 10:42:53;;;;;;;5.85;2.30;;;19.90;81.00;;;;;;5031622;28;20039;-65
2021/08/28 10:45:34;;;;;;;7.97;2.87;;;19.90;81.00;;;;;;5033821;28;20103;-67
2021/08/28 10:48:06;;;;;;;9.70;3.17;;;20.00;80.90;;;;;;5030202;28;20082;-70
2021/08/28 10:50:38;;;;;;;7.95;2.70;;;20.00;81.00;;;;;;5034854;28;20021;-69
2021/08/28 10:53:05;;;;;;;5.20;2.78;;;20.00;81.20;;;;;;5039550;28;20160;-70
2021/08/28 10:55:34;;;;;;;7.68;2.80;;;20.00;81.40;;;;;;5034313;28;20407;-67
2021/08/28 10:58:19;;;;;;;6.60;2.45;;;20.00;81.60;;;;;;5037664;28;20079;-68
2021/08/28 11:00:47;;;;;;;5.50;2.63;;;20.00;81.30;;;;;;5040438;28;20021;-72
2021/08/28 11:03:28;;;;;;;6.28;2.70;;;20.10;81.20;;;;;;5039643;28;20078;-70
2021/08/28 11:06:16;;;;;;;6.43;2.42;;;20.10;81.10;;;;;;5038213;28;20029;-69
2021/08/28 11:08:49;;;;;;;6.45;2.65;;;20.20;80.80;;;;;;5037085;28;20100;-69
2021/08/28 11:11:35;;;;;;;6.38;2.75;;;20.20;80.70;;;;;;5035703;28;20554;-72
2021/08/28 11:14:10;;;;;;;6.13;2.58;;;20.20;81.00;;;;;;5069777;22;20064;-69
2021/08/28 11:16:41;;;;;;;7.63;2.22;;;20.20;80.70;;;;;;4987710;28;20070;-70
2021/08/28 11:19:30;;;;;;;5.47;2.08;;;20.10;80.50;;;;;;4992533;28;20113;-68
2021/08/28 11:21:55;;;;;;;7.72;2.40;;;20.10;80.40;;;;;;4972062;28;20061;-66
2021/08/28 11:24:22;;;;;;;6.78;2.33;;;20.10;80.50;;;;;;5004234;28;20069;-70
2021/08/28 11:26:57;;;;;;;6.78;2.10;;;20.10;80.50;;;;;;4986952;28;20030;-69
2021/08/28 11:29:28;;;;;;;5.80;1.83;;;20.10;80.40;;;;;;5001095;28;20529;-70
2021/08/28 11:32:13;;;;;;;7.63;2.17;;;20.10;80.30;;;;;;4985463;28;20042;-70
2021/08/28 11:34:49;;;;;;;4.90;2.13;;;20.20;80.20;;;;;;4981349;28;20037;-67
2021/08/28 11:37:30;;;;;;;7.47;2.53;;;20.20;80.10;;;;;;4981901;28;20034;-67
2021/08/28 11:39:58;;;;;;;6.90;2.20;;;20.20;80.00;;;;;;4986956;28;20041;-67
2021/08/28 11:42:24;;;;;;;8.93;2.00;;;20.20;79.90;;;;;;4987726;28;20503;-68
2021/08/28 11:44:51;;;;;;;8.27;2.08;;;20.20;79.80;;;;;;4982504;28;20034;-69
2021/08/28 11:47:18;;;;;;;8.30;2.28;;;20.20;79.60;;;;;;4979733;28;20399;-67
2021/08/28 11:49:43;;;;;;;9.30;2.00;;;20.20;79.20;;;;;;4985776;28;20023;-69
2021/08/28 11:52:09;;;;;;;8.93;2.33;;;20.20;79.30;;;;;;4986690;28;20022;-69
2021/08/28 11:54:35;;;;;;;13.43;3.03;;;20.20;79.10;;;;;;4986592;28;20029;-70
2021/08/28 11:57:01;;;;;;;15.93;3.33;;;20.20;79.30;;;;;;4987005;28;20034;-69
2021/08/28 11:59:38;;;;;;;14.20;2.67;;;20.20;79.10;;;;;;4989199;28;20305;-69
2021/08/28 12:02:05;;;;;;;16.65;3.63;;;20.30;79.00;;;;;;4996692;28;20048;-68
2021/08/28 12:04:36;;;;;;;19.50;3.17;;;20.30;78.90;;;;;;4986540;28;20061;-70
2021/08/28 12:07:04;;;;;;;17.10;3.22;;;20.20;78.70;;;;;;4968406;28;20111;-68
2021/08/28 12:09:30;;;;;;;15.20;3.58;;;20.30;78.80;;;;;;4980799;28;20030;-69
2021/08/28 12:11:56;;;;;;;21.00;4.22;;;20.40;78.50;;;;;;4972933;28;20505;-69
2021/08/28 12:14:25;;;;;;;15.07;3.65;;;20.40;78.40;;;;;;4970874;28;20035;-70
2021/08/28 12:16:51;;;;;;;12.05;3.30;;;20.40;78.30;;;;;;4969385;28;20549;-69
2021/08/28 12:19:23;;;;;;;19.30;3.97;;;20.30;78.40;;;;;;4967597;28;20066;-68
2021/08/28 12:21:55;;;;;;;15.60;3.88;;;20.30;78.50;;;;;;4984453;28;20030;-68
2021/08/28 12:24:36;;;;;;;;;;;20.30;78.60;;;;;;4987325;28;20026;-69
2021/08/28 12:27:06;;;;;;;20.63;4.68;;;20.40;78.50;;;;;;4986725;28;19985;-69
2021/08/28 12:29:39;;;;;;;20.80;3.70;;;20.30;78.50;;;;;;4987695;28;20019;-71
2021/08/28 12:32:11;;;;;;;18.73;3.80;;;20.30;78.30;;;;;;4985994;28;20030;-68
2021/08/28 12:34:39;;;;;;;16.33;4.05;;;20.30;78.40;;;;;;4995629;28;20035;-69
2021/08/28 12:37:07;;;;;;;18.73;4.20;;;20.30;78.40;;;;;;4986171;28;20031;-68
2021/08/28 12:39:35;;;;;;;31.55;4.68;;;20.30;78.20;;;;;;4986972;28;20034;-76
2021/08/28 12:42:02;;;;;;;33.17;5.93;;;20.40;78.60;;;;;;4968727;28;20518;-69
2021/08/28 12:44:30;;;;;;;40.85;6.38;;;20.40;78.80;;;;;;4999800;28;20569;-67
2021/08/28 12:46:58;;;;;;;34.17;5.68;;;20.40;78.40;;;;;;4984147;28;20062;-66
2021/08/28 12:49:26;;;;;;;30.40;5.72;;;20.40;78.20;;;;;;4985826;28;20625;-69